Time;durP1;ratioP1;P1;durP2;ratioP2;P2;SDS_P1;SDS_P2;PMS_P1;PMS_P2;Temp;Humidity;BMP_temperature;BMP_pressure;BME280_temperature;BME280_humidity;BME280_pressure;Samples;Min_cycle;Max_cycle;Signal;HPM_P1;HPM_P2
2023/08/20 00:00:08;;;;;;;1.40;1.30;;;;;;;23.35;100.00;100695.16;4982806;28;20100;-75
2023/08/20 00:02:37;;;;;;;2.22;1.48;;;;;;;23.32;100.00;100696.19;4990044;28;20069;-77
2023/08/20 00:05:03;;;;;;;1.27;1.17;;;;;;;23.27;100.00;100668.78;4988283;28;20039;-76
2023/08/20 00:07:32;;;;;;;4.97;0.95;;;;;;;23.26;100.00;100664.34;4986883;28;20062;-76
2023/08/20 00:09:58;;;;;;;0.98;0.82;;;;;;;23.40;100.00;100669.03;4987980;28;20035;-75
2023/08/20 00:12:25;;;;;;;1.17;1.08;;;;;;;23.55;100.00;100688.81;4989057;28;20116;-77
2023/08/20 00:14:54;;;;;;;1.52;1.40;;;;;;;22.67;100.00;100591.31;4989106;28;20022;-77
2023/08/20 00:17:20;;;;;;;2.22;2.03;;;;;;;22.62;100.00;100581.78;4986227;28;20640;-76
2023/08/20 00:19:46;;;;;;;2.38;2.17;;;;;;;23.23;100.00;100669.84;4988363;28;20078;-77
2023/08/20 00:22:12;;;;;;;2.10;1.17;;;;;;;23.49;100.00;100675.75;4989741;28;20047;-76
2023/08/20 00:24:38;;;;;;;0.75;0.68;;;;;;;23.21;100.00;100649.47;4989124;28;20065;-76
2023/08/20 00:27:03;;;;;;;2.78;2.55;;;;;;;22.71;100.00;100578.63;4981700;28;20505;-76
2023/08/20 00:29:28;;;;;;;0.93;0.77;;;;;;;22.91;100.00;100610.66;4984885;28;20065;-76
2023/08/20 00:31:54;;;;;;;1.63;1.35;;;;;;;23.24;100.00;100658.19;4988732;28;20038;-76
2023/08/20 00:34:19;;;;;;;1.70;1.27;;;;;;;22.74;100.00;100565.13;4986908;28;20564;-77
2023/08/20 00:36:45;;;;;;;3.55;2.05;;;;;;;23.46;100.00;100670.50;4984933;28;20584;-76
2023/08/20 00:39:11;;;;;;;2.05;1.83;;;;;;;23.43;100.00;100676.03;4989042;28;20093;-75
2023/08/20 00:41:37;;;;;;;1.23;1.13;;;;;;;23.46;100.00;100678.56;4986807;28;20030;-77
2023/08/20 00:44:03;;;;;;;2.65;1.45;;;;;;;23.38;100.00;100646.81;4979567;28;20489;-74
2023/08/20 00:46:29;;;;;;;8.75;3.60;;;;;;;22.85;100.00;100573.50;4987831;28;20505;-76
2023/08/20 00:48:56;;;;;;;9.80;4.03;;;;;;;23.50;100.00;100678.31;4986755;28;20038;-77
2023/08/20 00:51:22;;;;;;;7.05;3.00;;;;;;;22.63;100.00;100578.16;4988491;28;20133;-75
2023/08/20 00:53:48;;;;;;;1.23;0.80;;;;;;;23.11;100.00;100681.16;4985031;28;20026;-75
2023/08/20 00:56:15;;;;;;;1.63;1.17;;;;;;;22.97;100.00;100663.91;4985551;28;20514;-75
2023/08/20 00:58:41;;;;;;;3.67;1.40;;;;;;;22.46;100.00;100578.94;4988423;28;20495;-74
2023/08/20 01:01:07;;;;;;;12.07;2.55;;;;;;;22.92;100.00;100673.06;5018511;28;20046;-78
2023/08/20 01:03:32;;;;;;;2.92;2.10;;;;;;;22.89;100.00;100678.59;4981220;28;20073;-76
2023/08/20 01:06:13;;;;;;;1.15;0.93;;;;;;;22.78;100.00;100638.97;5019669;28;20046;-76
2023/08/20 01:08:40;;;;;;;1.65;1.55;;;;;;;23.05;100.00;100681.44;4986432;28;20027;-74
2023/08/20 01:11:29;;;;;;;1.73;1.63;;;;;;;22.30;100.00;100573.44;4979505;28;20053;-74
2023/08/20 01:13:55;;;;;;;0.73;0.45;;;;;;;22.47;100.00;100570.84;4986994;28;20038;-76
2023/08/20 01:16:21;;;;;;;1.48;1.38;;;;;;;23.10;100.00;100685.63;4988240;28;20497;-74
2023/08/20 01:18:47;;;;;;;1.33;1.23;;;;;;;22.42;100.00;100578.22;4987102;28;20046;-77
2023/08/20 01:21:29;;;;;;;1.45;1.35;;;;;;;22.97;100.00;100682.66;4987327;28;20054;-75
2023/08/20 01:24:17;;;;;;;2.13;1.95;;;;;;;22.77;100.00;100670.19;4984974;28;20117;-75
2023/08/20 01:26:56;;;;;;;1.70;1.35;;;;;;;22.85;100.00;100688.59;4986943;28;20035;-74
2023/08/20 01:29:22;;;;;;;9.68;4.93;;;;;;;22.21;100.00;100579.22;4984383;28;20042;-75
2023/08/20 01:31:48;;;;;;;2.05;1.95;;;;;;;22.27;100.00;100601.19;4987536;28;20125;-75
2023/08/20 01:34:13;;;;;;;0.68;0.63;;;;;;;22.39;100.00;100669.28;4988132;28;20493;-76
2023/08/20 01:36:39;;;;;;;2.35;1.58;;;;;;;21.71;100.00;100585.84;4987759;28;20473;-75
2023/08/20 01:39:05;;;;;;;2.53;2.33;;;;;;;22.15;100.00;100679.22;4975951;28;20039;-75
2023/08/20 01:41:30;;;;;;;5.55;1.83;;;;;;;21.65;100.00;100596.78;5001284;28;20038;-75
2023/08/20 01:43:56;;;;;;;1.17;1.08;;;;;;;21.60;100.00;100594.31;4987568;28;20046;-75
2023/08/20 01:46:22;;;;;;;1.25;1.20;;;;;;;22.10;100.00;100684.78;4984735;28;20137;-76
2023/08/20 01:48:47;;;;;;;0.82;0.82;;;;;;;21.57;100.00;100612.28;4979688;28;20414;-76
2023/08/20 01:51:13;;;;;;;1.88;1.77;;;;;;;22.07;100.00;100676.00;4999318;28;20062;-74
2023/08/20 01:53:38;;;;;;;2.40;1.65;;;;;;;22.14;100.00;100678.34;4983630;28;20053;-74
2023/08/20 01:56:04;;;;;;;4.03;2.92;;;;;;;22.10;100.00;100674.09;4983081;28;20046;-76
2023/08/20 01:58:30;;;;;;;1.70;1.42;;;;;;;22.29;100.00;100690.22;4987655;28;20050;-77
2023/08/20 02:00:56;;;;;;;2.30;2.05;;;;;;;22.33;100.00;100688.25;4986677;28;20054;-76
2023/08/20 02:03:22;;;;;;;1.73;1.63;;;;;;;21.52;100.00;100584.88;4987121;28;20051;-75
2023/08/20 02:05:48;;;;;;;0.88;0.75;;;;;;;21.65;100.00;100608.31;4985614;28;20113;-75
2023/08/20 02:08:13;;;;;;;1.58;1.48;;;;;;;21.93;100.00;100657.91;4987335;28;20104;-76
2023/08/20 02:10:39;;;;;;;3.85;2.28;;;;;;;21.69;100.00;100604.59;4985133;28;20050;-75
2023/08/20 02:13:05;;;;;;;1.73;1.35;;;;;;;21.67;100.00;100634.97;4985679;28;20413;-75
2023/08/20 02:15:30;;;;;;;1.08;0.90;;;;;;;21.90;100.00;100680.28;4985031;28;20046;-75
2023/08/20 02:17:56;;;;;;;2.05;1.85;;;;;;;21.84;100.00;100655.63;4985408;28;20022;-75
2023/08/20 02:20:22;;;;;;;1.40;1.23;;;;;;;21.24;100.00;100570.00;4978987;28;20137;-76
2023/08/20 02:22:48;;;;;;;1.63;1.08;;;;;;;21.73;100.00;100671.22;4981279;28;20049;-76
2023/08/20 02:25:13;;;;;;;1.40;0.85;;;;;;;21.81;100.00;100675.31;4986526;28;20039;-76
2023/08/20 02:27:39;;;;;;;3.05;2.58;;;;;;;21.33;100.00;100582.97;4986854;28;20038;-76
2023/08/20 02:30:05;;;;;;;1.45;1.35;;;;;;;21.69;100.00;100665.16;4986583;28;20058;-75
2023/08/20 02:32:33;;;;;;;2.38;2.22;;;;;;;21.76;100.00;100698.69;4984983;28;20134;-75
2023/08/20 02:34:58;;;;;;;3.13;1.55;;;;;;;21.34;100.00;100613.22;4983999;28;20521;-75
2023/08/20 02:37:24;;;;;;;1.33;1.08;;;;;;;21.79;100.00;100695.88;4986621;28;20050;-76
2023/08/20 02:39:49;;;;;;;0.93;0.90;;;;;;;21.86;100.00;100700.03;4984497;28;20039;-76
2023/08/20 02:42:15;;;;;;;1.38;1.27;;;;;;;21.62;100.00;100682.38;4978147;28;20100;-75
2023/08/20 02:44:40;;;;;;;1.33;1.02;;;;;;;21.10;100.00;100589.25;4986088;28;20538;-74
2023/08/20 02:47:06;;;;;;;1.55;1.45;;;;;;;21.79;100.00;100713.72;4987079;28;20129;-74
2023/08/20 02:49:31;;;;;;;2.15;1.95;;;;;;;21.78;100.00;100709.34;4980453;28;20050;-75
2023/08/20 02:51:57;;;;;;;1.10;0.75;;;;;;;21.19;100.00;100606.69;4986713;28;20490;-74
2023/08/20 02:54:22;;;;;;;2.00;1.80;;;;;;;21.76;100.00;100716.53;4985697;28;20054;-75
2023/08/20 02:56:48;;;;;;;5.93;3.10;;;;;;;21.67;100.00;100691.06;4986467;28;20038;-76
2023/08/20 02:59:13;;;;;;;2.30;1.33;;;;;;;21.82;100.00;100717.16;4986973;28;20038;-77
2023/08/20 03:01:39;;;;;;;2.50;2.30;;;;;;;21.36;100.00;100652.25;4986367;28;20053;-76
2023/08/20 03:04:05;;;;;;;1.40;1.30;;;;;;;21.67;100.00;100726.66;4985712;28;20058;-77
2023/08/20 03:06:30;;;;;;;1.27;1.17;;;;;;;21.69;100.00;100705.22;4984929;28;20046;-77
2023/08/20 03:08:56;;;;;;;2.92;2.67;;;;;;;21.80;100.00;100715.47;4984332;28;20035;-76
2023/08/20 03:11:21;;;;;;;1.38;1.27;;;;;;;21.84;100.00;100720.59;4984078;28;20038;-76
2023/08/20 03:13:47;;;;;;;6.00;2.05;;;;;;;21.38;100.00;100634.38;4986084;28;20035;-74
2023/08/20 03:16:12;;;;;;;1.17;1.08;;;;;;;21.82;100.00;100714.47;4983535;28;20555;-76
2023/08/20 03:18:38;;;;;;;2.03;1.85;;;;;;;21.22;100.00;100614.56;4985658;28;20589;-74
2023/08/20 03:21:03;;;;;;;1.73;1.58;;;;;;;21.36;100.00;100648.72;4990130;28;20050;-76
2023/08/20 03:23:29;;;;;;;1.15;1.08;;;;;;;21.63;100.00;100713.47;4989398;28;20041;-76
2023/08/20 03:25:58;;;;;;;3.08;2.83;;;;;;;21.06;100.00;100636.53;4983025;28;20174;-75
2023/08/20 03:28:23;;;;;;;1.48;1.30;;;;;;;21.56;100.00;100734.22;4986250;28;20054;-76
2023/08/20 03:30:49;;;;;;;2.53;2.33;;;;;;;21.50;100.00;100715.81;4989746;28;20513;-76
2023/08/20 03:33:16;;;;;;;2.85;2.10;;;;;;;21.55;100.00;100699.59;4990175;28;20417;-76
2023/08/20 03:35:42;;;;;;;1.30;1.20;;;;;;;21.56;100.00;100704.84;4984015;28;20034;-75
2023/08/20 03:38:07;;;;;;;3.08;2.78;;;;;;;21.81;100.00;100735.91;4990572;28;20121;-75
2023/08/20 03:40:33;;;;;;;2.03;1.85;;;;;;;21.75;100.00;100729.03;4989545;28;20556;-74
2023/08/20 03:42:58;;;;;;;3.40;2.25;;;;;;;21.38;100.00;100645.06;4989891;28;20042;-76
2023/08/20 03:45:25;;;;;;;2.00;1.45;;;;;;;21.68;100.00;100715.06;4979182;28;20073;-76
2023/08/20 03:47:51;;;;;;;1.42;1.00;;;;;;;21.21;100.00;100623.50;4990153;28;20093;-75
2023/08/20 03:50:16;;;;;;;1.35;1.10;;;;;;;21.35;100.00;100653.16;4986689;28;20448;-75
2023/08/20 03:52:42;;;;;;;2.40;1.92;;;;;;;21.82;100.00;100740.31;4989387;28;20049;-77
2023/08/20 03:55:08;;;;;;;1.30;1.20;;;;;;;21.08;100.00;100617.81;4988116;28;20046;-76
2023/08/20 03:57:33;;;;;;;1.13;1.08;;;;;;;21.87;100.00;100725.84;4989543;28;20038;-77
2023/08/20 03:59:59;;;;;;;1.65;1.55;;;;;;;21.88;100.00;100721.34;4985474;28;20038;-75
2023/08/20 04:02:24;;;;;;;3.50;2.00;;;;;;;21.87;100.00;100724.97;4982383;28;20502;-75
2023/08/20 04:04:50;;;;;;;2.05;1.90;;;;;;;21.82;100.00;100722.50;4989691;28;20030;-75
2023/08/20 04:07:15;;;;;;;1.23;0.98;;;;;;;21.76;100.00;100697.84;4989892;28;20050;-75
2023/08/20 04:09:42;;;;;;;0.85;0.60;;;;;;;21.71;100.00;100696.22;4988015;28;20517;-76
2023/08/20 04:12:08;;;;;;;2.67;1.55;;;;;;;21.28;100.00;100616.97;4984349;28;20505;-75
2023/08/20 04:14:33;;;;;;;0.47;0.47;;;;;;;22.04;100.00;100727.78;4989636;28;20057;-76
2023/08/20 04:16:59;;;;;;;2.53;2.08;;;;;;;21.37;100.00;100605.06;4989090;28;20038;-73
2023/08/20 04:19:24;;;;;;;1.77;0.90;;;;;;;22.10;100.00;100716.84;4981477;28;20042;-75
2023/08/20 04:21:51;;;;;;;4.03;2.58;;;;;;;22.13;100.00;100711.38;4987086;28;20529;-77
2023/08/20 04:24:16;;;;;;;4.78;1.80;;;;;;;22.21;100.00;100726.22;4989496;28;20045;-75
2023/08/20 04:26:43;;;;;;;2.50;1.08;;;;;;;21.67;100.00;100635.84;4986490;28;20039;-75
2023/08/20 04:29:09;;;;;;;1.10;1.00;;;;;;;22.21;100.00;100728.91;4978150;28;20058;-74
2023/08/20 04:31:34;;;;;;;1.33;1.23;;;;;;;21.55;100.00;100612.34;4980880;28;20165;-76
2023/08/20 04:34:00;;;;;;;1.27;1.13;;;;;;;21.67;100.00;100624.28;4988759;28;20054;-74
2023/08/20 04:36:25;;;;;;;1.20;0.98;;;;;;;22.16;100.00;100699.66;4987132;28;20058;-76
2023/08/20 04:38:51;;;;;;;3.42;2.10;;;;;;;21.94;100.00;100656.97;4986318;28;20030;-76
2023/08/20 04:41:16;;;;;;;2.17;2.03;;;;;;;22.44;100.00;100733.25;4984510;28;20766;-76
2023/08/20 04:43:42;;;;;;;1.73;1.63;;;;;;;22.37;100.00;100719.28;4987169;28;20383;-75
2023/08/20 04:46:08;;;;;;;2.47;1.45;;;;;;;22.47;100.00;100725.09;4988170;28;20053;-76
2023/08/20 04:48:33;;;;;;;1.98;1.77;;;;;;;21.95;100.00;100617.75;4986177;28;20541;-77
2023/08/20 04:51:00;;;;;;;3.70;2.42;;;;;;;21.97;100.00;100605.22;4983884;28;20081;-76
2023/08/20 04:53:25;;;;;;;1.60;1.50;;;;;;;21.67;100.00;100553.03;4989136;28;20065;-75
2023/08/20 04:55:51;;;;;;;1.67;1.33;;;;;;;22.55;100.00;100688.19;4981644;28;20047;-75
2023/08/20 04:58:16;;;;;;;2.05;1.65;;;;;;;22.25;100.00;100635.13;4988377;28;20041;-75
2023/08/20 05:00:42;;;;;;;1.00;0.90;;;;;;;22.77;100.00;100698.75;4990391;28;20053;-74
2023/08/20 05:03:08;;;;;;;1.42;1.33;;;;;;;22.97;100.00;100714.75;4990387;28;20054;-75
2023/08/20 05:05:33;;;;;;;1.98;1.77;;;;;;;23.04;100.00;100714.50;4987631;28;20038;-75
2023/08/20 05:07:58;;;;;;;3.60;1.23;;;;;;;22.98;100.00;100699.56;4986328;28;20075;-77
2023/08/20 05:10:24;;;;;;;1.83;1.73;;;;;;;22.61;100.00;100614.78;4985613;28;20054;-77
2023/08/20 05:12:49;;;;;;;18.55;1.83;;;;;;;23.31;100.00;100718.53;4988321;28;20042;-74
2023/08/20 05:15:15;;;;;;;13.27;3.15;;;;;;;22.82;100.00;100618.28;4987218;28;20461;-76
2023/08/20 05:17:41;;;;;;;1.95;1.23;;;;;;;22.95;100.00;100636.34;4988144;28;20041;-76
2023/08/20 05:20:06;;;;;;;5.38;2.72;;;;;;;22.97;100.00;100617.56;4985931;28;20591;-76
2023/08/20 05:22:32;;;;;;;1.13;1.02;;;;;;;23.28;100.00;100653.56;4984364;28;20054;-75
2023/08/20 05:24:58;;;;;;;1.08;0.80;;;;;;;23.79;100.00;100735.00;4984576;28;20046;-77
2023/08/20 05:27:23;;;;;;;1.25;0.85;;;;;;;23.59;100.00;100652.91;4985049;28;20149;-75
2023/08/20 05:29:49;;;;;;;1.55;1.30;;;;;;;24.01;100.00;100630.22;4988315;28;20034;-74
2023/08/20 05:32:17;;;;;;;0.75;0.75;;;;;;;24.91;100.00;100698.75;4983445;28;20030;-76
2023/08/20 05:34:43;;;;;;;34.78;2.88;;;;;;;25.94;100.00;100720.69;4987734;28;20758;-75
2023/08/20 05:37:08;;;;;;;1.40;1.30;;;;;;;26.78;100.00;100744.31;4987674;28;20046;-74
2023/08/20 05:39:42;;;;;;;3.20;1.88;;;;;;;27.15;100.00;100748.25;4981748;28;20054;-76
2023/08/20 05:42:08;;;;;;;1.25;1.15;;;;;;;27.24;100.00;100652.50;4979257;28;20104;-76
2023/08/20 05:44:33;;;;;;;2.08;1.88;;;;;;;27.78;92.77;100668.66;4988536;28;20038;-73
2023/08/20 05:47:00;;;;;;;0.70;0.60;;;;;;;28.06;90.58;100668.63;4988279;28;20100;-75
2023/08/20 05:49:26;;;;;;;3.33;0.77;;;;;;;28.92;86.26;100755.28;4985337;28;20080;-75
2023/08/20 05:51:52;;;;;;;1.13;0.80;;;;;;;29.02;81.69;100717.66;5017896;28;20043;-75
2023/08/20 05:54:17;;;;;;;1.98;1.83;;;;;;;28.60;77.68;100587.44;4985197;28;20054;-75
2023/08/20 05:56:43;;;;;;;0.32;0.30;;;;;;;29.24;66.76;100742.19;4987604;28;20031;-77
2023/08/20 05:59:08;;;;;;;0.47;0.47;;;;;;;29.09;67.55;100742.44;4984603;28;20495;-75
2023/08/20 06:01:34;;;;;;;1.65;1.00;;;;;;;28.73;66.61;100671.09;4987554;28;20509;-76
2023/08/20 06:03:59;;;;;;;1.75;1.15;;;;;;;28.85;63.93;100672.94;4987864;28;20050;-75
2023/08/20 06:06:26;;;;;;;1.13;0.63;;;;;;;28.88;64.90;100740.25;4991748;28;20517;-75
2023/08/20 06:08:51;;;;;;;2.17;1.98;;;;;;;29.58;65.08;100757.75;4985068;28;20030;-76
2023/08/20 06:11:17;;;;;;;0.45;0.45;;;;;;;29.35;64.40;100664.81;4985388;28;20136;-75
2023/08/20 06:13:43;;;;;;;0.20;0.20;;;;;;;29.12;61.63;100659.28;4988273;28;20050;-75
2023/08/20 06:16:08;;;;;;;2.17;1.60;;;;;;;29.29;64.30;100722.91;4987168;28;20050;-74
2023/08/20 06:18:34;;;;;;;1.55;0.75;;;;;;;29.95;63.03;100752.31;4983607;28;20096;-75
2023/08/20 06:20:59;;;;;;;0.60;0.47;;;;;;;29.43;61.49;100684.91;4983103;28;20120;-75
2023/08/20 06:23:25;;;;;;;1.42;1.33;;;;;;;29.25;62.87;100705.19;4987698;28;20033;-75
2023/08/20 06:25:51;;;;;;;1.67;1.55;;;;;;;30.30;61.11;100746.94;4981257;28;20066;-76
2023/08/20 06:28:17;;;;;;;0.65;0.45;;;;;;;29.74;60.21;100674.50;4985772;28;20494;-77
2023/08/20 06:30:44;;;;;;;3.40;1.70;;;;;;;29.82;58.98;100677.47;4987443;28;20042;-74
2023/08/20 06:33:10;;;;;;;4.15;1.40;;;;;;;30.33;59.14;100754.81;4985484;28;20054;-76
2023/08/20 06:35:35;;;;;;;1.48;1.15;;;;;;;30.45;58.15;100743.00;4992877;28;20704;-76
2023/08/20 06:38:01;;;;;;;0.98;0.68;;;;;;;30.34;58.14;100688.81;4982349;28;20050;-78
2023/08/20 06:40:26;;;;;;;0.35;0.35;;;;;;;29.33;60.51;100673.03;4986909;28;20046;-74
2023/08/20 06:42:52;;;;;;;0.65;0.63;;;;;;;30.31;58.63;100745.94;4987829;28;20134;-75
2023/08/20 06:45:17;;;;;;;1.13;1.02;;;;;;;29.64;58.92;100670.72;4982983;28;20088;-77
2023/08/20 06:47:43;;;;;;;0.45;0.45;;;;;;;30.03;58.50;100737.19;4990184;28;20030;-76
2023/08/20 06:50:09;;;;;;;1.75;1.10;;;;;;;29.53;59.73;100679.66;4986975;28;20116;-77
2023/08/20 06:52:34;;;;;;;0.70;0.50;;;;;;;29.69;59.89;100743.44;4983017;28;20050;-77
2023/08/20 06:55:01;;;;;;;0.40;0.40;;;;;;;29.79;60.00;100739.06;4985877;28;20505;-77
2023/08/20 06:57:26;;;;;;;4.15;0.82;;;;;;;29.84;59.79;100751.28;4985821;28;20101;-75
2023/08/20 06:59:52;;;;;;;0.28;0.28;;;;;;;29.30;61.33;100669.72;5017042;28;20470;-74
2023/08/20 07:02:17;;;;;;;1.00;0.95;;;;;;;29.45;61.58;100749.66;4986217;28;20034;-77
2023/08/20 07:04:43;;;;;;;0.57;0.57;;;;;;;29.55;60.94;100749.84;4986008;28;20046;-75
2023/08/20 07:07:09;;;;;;;2.83;2.63;;;;;;;29.56;60.36;100748.88;4985925;28;20069;-75
2023/08/20 07:09:34;;;;;;;0.88;0.88;;;;;;;29.60;61.43;100753.09;4983130;28;20045;-75
2023/08/20 07:12:02;;;;;;;1.55;1.35;;;;;;;29.66;59.57;100758.91;4985519;28;20042;-73
2023/08/20 07:14:28;;;;;;;1.67;1.58;;;;;;;29.71;59.48;100753.16;4986319;28;20026;-73
2023/08/20 07:16:54;;;;;;;1.02;0.93;;;;;;;29.26;59.92;100674.47;4978909;28;20053;-74
2023/08/20 07:19:19;;;;;;;2.30;0.90;;;;;;;29.01;59.08;100606.00;4981042;28;20050;-74
2023/08/20 07:21:45;;;;;;;1.48;1.10;;;;;;;29.83;59.79;100740.59;4982892;28;20078;-77
2023/08/20 07:24:10;;;;;;;0.80;0.73;;;;;;;29.75;58.67;100754.66;4985226;28;20562;-76
2023/08/20 07:26:36;;;;;;;0.60;0.60;;;;;;;29.45;59.55;100669.44;5017673;28;20479;-75
2023/08/20 07:29:01;;;;;;;1.63;1.52;;;;;;;30.00;58.80;100745.56;4984356;28;20586;-77
2023/08/20 07:31:32;;;;;;;0.73;0.73;;;;;;;30.00;58.42;100733.88;4981235;28;20100;-75
2023/08/20 07:33:59;;;;;;;0.98;0.65;;;;;;;29.43;58.52;100663.28;4984987;28;20085;-76
2023/08/20 07:36:26;;;;;;;1.25;0.43;;;;;;;29.24;57.72;100662.91;4985267;28;20050;-76
2023/08/20 07:38:53;;;;;;;0.80;0.80;;;;;;;29.64;58.23;100716.69;4984706;28;20046;-75
2023/08/20 07:41:22;;;;;;;0.88;0.80;;;;;;;29.67;57.42;100719.22;4985592;28;20041;-74
2023/08/20 07:43:48;;;;;;;0.57;0.52;;;;;;;29.26;58.04;100658.25;4984329;28;20042;-75
2023/08/20 07:46:15;;;;;;;0.82;0.82;;;;;;;29.86;57.57;100743.03;4984196;28;20046;-76
2023/08/20 07:48:41;;;;;;;1.55;1.45;;;;;;;29.31;56.74;100634.44;4976062;28;20050;-76
2023/08/20 07:51:07;;;;;;;1.20;0.75;;;;;;;30.07;57.51;100745.97;4981366;28;20057;-76
2023/08/20 07:53:33;;;;;;;0.20;0.20;;;;;;;29.92;56.39;100674.06;4986559;28;20113;-76
2023/08/20 07:56:00;;;;;;;0.40;0.40;;;;;;;29.98;56.10;100728.56;4984618;28;20138;-75
2023/08/20 07:58:26;;;;;;;0.68;0.60;;;;;;;29.78;56.33;100692.22;4980753;28;20042;-77
2023/08/20 08:00:52;;;;;;;1.83;1.45;;;;;;;29.92;55.76;100711.94;4984012;28;20050;-75
2023/08/20 08:03:17;;;;;;;0.85;0.85;;;;;;;29.56;56.96;100638.84;4985450;28;20104;-75
2023/08/20 08:05:50;;;;;;;1.15;1.10;;;;;;;30.55;55.10;100720.63;5016361;28;20030;-76
2023/08/20 08:08:19;;;;;;;2.00;1.83;;;;;;;29.87;55.72;100623.84;4987346;28;20157;-75
2023/08/20 08:10:45;;;;;;;2.08;1.88;;;;;;;30.11;56.22;100668.97;4984691;28;20062;-75
2023/08/20 08:13:21;;;;;;;1.27;1.10;;;;;;;30.54;55.16;100717.06;4988785;28;20050;-75
2023/08/20 08:15:47;;;;;;;1.40;0.77;;;;;;;30.20;53.73;100624.03;4982714;28;20558;-74
2023/08/20 08:18:13;;;;;;;0.98;0.95;;;;;;;30.16;54.12;100623.44;4988386;28;20045;-74
2023/08/20 08:20:38;;;;;;;2.53;0.93;;;;;;;30.85;54.23;100698.38;4981447;28;20101;-74
2023/08/20 08:23:04;;;;;;;0.57;0.55;;;;;;;30.75;53.77;100708.19;4986850;28;20437;-76
2023/08/20 08:25:29;;;;;;;0.70;0.57;;;;;;;30.46;53.81;100657.19;4987892;28;20698;-75
2023/08/20 08:27:55;;;;;;;1.23;1.13;;;;;;;30.40;54.42;100620.66;4988621;28;20042;-74
2023/08/20 08:30:20;;;;;;;1.65;1.55;;;;;;;31.15;53.13;100699.56;4988431;28;20129;-74
2023/08/20 08:32:46;;;;;;;1.13;1.02;;;;;;;31.08;53.22;100707.34;4984322;28;20231;-74
2023/08/20 08:35:11;;;;;;;1.38;1.27;;;;;;;31.05;53.25;100666.94;4988919;28;20034;-75
2023/08/20 08:37:37;;;;;;;0.50;0.50;;;;;;;30.67;53.67;100611.25;4988448;28;20176;-75
2023/08/20 08:40:06;;;;;;;0.82;0.70;;;;;;;30.76;53.42;100610.50;4985796;28;20061;-76
2023/08/20 08:42:35;;;;;;;0.55;0.52;;;;;;;31.01;54.09;100598.56;4979904;28;20046;-74
2023/08/20 08:45:02;;;;;;;1.42;1.33;;;;;;;31.42;51.95;100702.75;4987957;28;20533;-75
2023/08/20 08:47:29;;;;;;;1.08;0.93;;;;;;;31.35;52.01;100622.84;4988912;28;20148;-74
2023/08/20 08:49:58;;;;;;;1.23;0.77;;;;;;;31.67;51.51;100695.25;4981572;28;20047;-75
2023/08/20 08:52:24;;;;;;;2.45;1.73;;;;;;;31.31;52.56;100605.13;4982534;28;20545;-73
2023/08/20 08:54:51;;;;;;;0.70;0.70;;;;;;;31.58;51.94;100693.31;4987800;28;20049;-74
2023/08/20 08:57:16;;;;;;;0.77;0.77;;;;;;;31.51;52.29;100688.41;4986916;28;20524;-74
2023/08/20 08:59:42;;;;;;;1.40;0.98;;;;;;;31.68;51.33;100665.28;4981101;28;20031;-75
2023/08/20 09:02:12;;;;;;;0.52;0.52;;;;;;;31.75;50.63;100687.34;4988049;28;20053;-75
2023/08/20 09:04:39;;;;;;;1.58;1.30;;;;;;;31.32;49.74;100607.69;4987076;28;20038;-75
2023/08/20 09:07:05;;;;;;;1.05;1.02;;;;;;;31.61;50.38;100666.81;4987413;28;20137;-75
2023/08/20 09:09:31;;;;;;;0.73;0.73;;;;;;;32.04;50.00;100678.59;4982922;28;20042;-75
2023/08/20 09:11:56;;;;;;;3.00;2.63;;;;;;;31.97;50.00;100675.53;4987929;28;20482;-75
2023/08/20 09:14:32;;;;;;;0.88;0.88;;;;;;;31.65;48.67;100594.97;4988224;28;20027;-74
2023/08/20 09:17:01;;;;;;;0.88;0.70;;;;;;;32.39;48.06;100665.50;4983793;28;20180;-76
2023/08/20 09:19:37;;;;;;;1.02;0.93;;;;;;;32.87;47.56;100664.00;4981632;28;20514;-76
2023/08/20 09:22:03;;;;;;;3.08;1.55;;;;;;;32.60;47.04;100637.47;4987305;28;20065;-76
2023/08/20 09:24:45;;;;;;;1.58;0.65;;;;;;;32.66;46.10;100590.69;4987114;28;20050;-74
2023/08/20 09:27:12;;;;;;;1.77;1.48;;;;;;;33.17;45.30;100659.53;4975885;28;20042;-75
2023/08/20 09:29:45;;;;;;;3.28;0.63;;;;;;;32.83;44.09;100574.72;4988650;28;20209;-75
2023/08/20 09:32:19;;;;;;;0.40;0.40;;;;;;;33.69;43.75;100651.16;4990476;28;20086;-75
2023/08/20 09:34:45;;;;;;;1.45;1.05;;;;;;;33.49;43.49;100642.97;4986021;28;20061;-75
2023/08/20 09:37:12;;;;;;;0.35;0.35;;;;;;;33.59;43.53;100660.19;4983931;28;20058;-74
2023/08/20 09:39:38;;;;;;;0.98;0.88;;;;;;;34.42;43.49;100665.97;4985143;28;20054;-74
2023/08/20 09:42:06;;;;;;;0.82;0.80;;;;;;;32.99;43.25;100577.75;4987618;28;20558;-75
2023/08/20 09:44:36;;;;;;;1.75;0.95;;;;;;;33.73;43.68;100658.88;4986558;28;20096;-75
2023/08/20 09:47:12;;;;;;;1.27;1.17;;;;;;;34.04;43.21;100658.69;4987019;28;20506;-74
2023/08/20 09:49:42;;;;;;;0.57;0.57;;;;;;;33.87;42.27;100652.13;4980682;28;20070;-76
2023/08/20 09:52:09;;;;;;;0.50;0.50;;;;;;;33.04;44.28;100648.94;4984799;28;20061;-76
2023/08/20 09:54:46;;;;;;;2.38;1.85;;;;;;;32.99;45.13;100649.31;4986941;28;20060;-74
2023/08/20 09:57:20;;;;;;;0.98;0.98;;;;;;;33.04;45.47;100646.22;4986902;28;20129;-75
2023/08/20 09:59:47;;;;;;;0.43;0.32;;;;;;;33.46;44.36;100572.50;4985929;28;20034;-75
2023/08/20 10:02:14;;;;;;;1.55;1.42;;;;;;;34.33;43.26;100570.63;4987100;28;20414;-74
2023/08/20 10:04:40;;;;;;;1.58;1.48;;;;;;;34.86;43.09;100649.88;4985335;28;20108;-76
2023/08/20 10:07:06;;;;;;;3.97;1.48;;;;;;;34.36;42.79;100644.75;4986154;28;20557;-75
2023/08/20 10:09:32;;;;;;;0.55;0.55;;;;;;;33.68;43.19;100641.28;4984933;28;20043;-75
2023/08/20 10:11:58;;;;;;;0.73;0.60;;;;;;;33.89;43.12;100627.50;4983324;28;20119;-75
2023/08/20 10:14:23;;;;;;;1.55;1.40;;;;;;;33.67;41.88;100482.56;4986696;28;20122;-74
2023/08/20 10:16:49;;;;;;;1.02;0.95;;;;;;;35.06;41.51;100633.38;4985637;28;20380;-77
2023/08/20 10:19:17;;;;;;;0.50;0.50;;;;;;;35.12;40.94;100533.72;4983097;28;20058;-74
2023/08/20 10:21:46;;;;;;;1.55;1.45;;;;;;;35.98;40.38;100639.56;4983192;28;20057;-75
2023/08/20 10:24:18;;;;;;;1.20;1.10;;;;;;;35.74;39.07;100548.25;4986965;28;20057;-74
2023/08/20 10:26:48;;;;;;;0.20;0.20;;;;;;;35.63;39.18;100543.03;4985570;28;20372;-75
2023/08/20 10:29:36;;;;;;;0.50;0.50;;;;;;;35.86;39.37;100630.78;4981419;28;20022;-75
2023/08/20 10:32:05;;;;;;;0.85;0.60;;;;;;;35.93;38.66;100615.44;4986432;28;20062;-77
2023/08/20 10:34:35;;;;;;;1.60;1.50;;;;;;;36.12;38.88;100617.16;4985794;28;20073;-75
2023/08/20 10:37:04;;;;;;;3.28;2.97;;;;;;;36.25;38.44;100575.72;4986671;28;20129;-76
2023/08/20 10:39:29;;;;;;;8.43;0.88;;;;;;;34.48;39.57;100530.94;4984404;28;20120;-77
2023/08/20 10:42:20;;;;;;;0.60;0.60;;;;;;;34.68;39.96;100608.06;4985944;28;20035;-75
2023/08/20 10:45:10;;;;;;;1.00;0.85;;;;;;;35.70;38.84;100580.47;4982921;28;20092;-76
2023/08/20 10:47:48;;;;;;;1.27;0.93;;;;;;;34.95;38.57;100522.63;4979869;28;20410;-75
2023/08/20 10:50:18;;;;;;;1.27;1.10;;;;;;;34.32;39.42;100528.03;4979886;28;20096;-75
2023/08/20 10:52:55;;;;;;;0.85;0.80;;;;;;;34.54;39.85;100603.09;4984636;28;20446;-76
2023/08/20 10:55:24;;;;;;;2.03;1.85;;;;;;;34.19;39.18;100520.22;4982883;28;20057;-75
2023/08/20 10:57:59;;;;;;;1.23;1.10;;;;;;;34.59;38.53;100546.25;4984501;28;20111;-75
2023/08/20 11:00:24;;;;;;;0.60;0.60;;;;;;;35.34;38.18;100596.00;4984574;28;20743;-75
2023/08/20 11:02:52;;;;;;;0.95;0.80;;;;;;;35.15;36.78;100531.56;4985719;28;20045;-74
2023/08/20 11:05:19;;;;;;;1.98;1.85;;;;;;;35.22;36.45;100527.19;4984495;28;20046;-76
2023/08/20 11:07:49;;;;;;;1.08;0.98;;;;;;;35.57;36.78;100587.34;4986314;28;20046;-77
2023/08/20 11:10:16;;;;;;;0.98;0.88;;;;;;;35.25;36.93;100515.94;4984101;28;20086;-75
2023/08/20 11:12:50;;;;;;;1.05;0.85;;;;;;;35.44;36.39;100576.81;4993319;28;20719;-73
2023/08/20 11:15:16;;;;;;;0.95;0.95;;;;;;;35.65;35.91;100503.63;4977734;28;20049;-75
2023/08/20 11:17:43;;;;;;;0.30;0.30;;;;;;;36.48;35.76;100545.91;4985376;28;20038;-75
2023/08/20 11:20:11;;;;;;;0.82;0.80;;;;;;;35.79;35.82;100487.69;4984222;28;20042;-75